Ammon, Virginia
Current Conditions -  °F | °C
As of 12:35 AM on Tuesday 27 Jan 2015 (Local Time) from KPTB Reporting Station
Overcast Overcast  
Wind Chill: 27°   Ceiling: 1100
Heat Index: 34°   Visibility: 10mi
Dew Point: 31°   Wind: 8mph
Humidity: 90%   Direction: 340°NNW
Pressure: 29.71"   Gusts: NA
Location:  37.16°N, 77.59°W
Report Text: KPTB 270535Z AUTO 34007KT 10SM OVC011 01/00 A2971 RMK AO2 T00101005
Loading
Personal Weather Stations






























Interactive Weather Map New forecast layout! Learn more

10-Day Weather Forecast

Advertisements
Track Severe Weather on mobile